Time;durP1;ratioP1;P1;durP2;ratioP2;P2;SDS_P1;SDS_P2;PMS_P1;PMS_P2;Temp;Humidity;BMP_temperature;BMP_pressure;BME280_temperature;BME280_humidity;BME280_pressure;Samples;Min_cycle;Max_cycle;Signal;HPM_P1;HPM_P2
2022/12/15 00:39:05;;;;;;;29.52;14.88;;;-3270.40;93.30;;;;;;5036162;28;20117;-69
2022/12/15 00:41:30;;;;;;;29.08;14.85;;;-3270.50;93.20;;;;;;5029762;28;20104;-69
2022/12/15 00:43:56;;;;;;;32.22;15.90;;;-3270.50;93.30;;;;;;5031644;28;20033;-70
2022/12/15 00:50:50;;;;;;;28.20;14.43;;;-3270.50;93.10;;;;;;5033059;28;20490;-69
2022/12/15 01:21:57;;;;;;;24.50;13.60;;;-3270.20;92.60;;;;;;5023130;28;20632;-69
2022/12/15 01:24:23;;;;;;;24.95;13.10;;;-3270.10;92.70;;;;;;5023604;28;20101;-69
2022/12/15 01:26:48;;;;;;;22.63;12.95;;;-3270.10;92.80;;;;;;5021455;28;20048;-69
2022/12/15 01:29:14;;;;;;;25.30;12.90;;;-3270.00;92.80;;;;;;5030324;28;20033;-69
2022/12/15 01:31:40;;;;;;;30.63;14.15;;;-3270.10;92.90;;;;;;5029483;28;20029;-69
2022/12/15 01:34:06;;;;;;;25.10;13.27;;;-3270.10;92.80;;;;;;5018653;28;20026;-70
2022/12/15 01:36:31;;;;;;;23.45;12.57;;;-3270.00;92.80;;;;;;5023817;28;20021;-68
2022/12/15 01:38:57;;;;;;;25.30;12.38;;;-3270.00;92.80;;;;;;5026403;28;20150;-69
2022/12/15 01:41:22;;;;;;;26.20;13.05;;;-3270.00;92.90;;;;;;5026368;28;20115;-68
2022/12/15 01:43:48;;;;;;;27.77;12.20;;;-3269.90;92.80;;;;;;5026982;28;20087;-69
2022/12/15 01:46:17;;;;;;;28.92;13.68;;;-3269.80;92.70;;;;;;5018820;28;20069;-69
2022/12/15 01:48:56;;;;;;;24.27;12.07;;;-3269.80;92.80;;;;;;5022547;28;20032;-72
2022/12/15 01:51:30;;;;;;;22.88;13.27;;;-3269.80;92.90;;;;;;5026093;28;20126;-68
2022/12/15 01:54:07;;;;;;;25.02;13.20;;;-3269.70;93.00;;;;;;5027568;28;20446;-69
2022/12/15 01:56:37;;;;;;;27.20;12.75;;;-3269.70;93.10;;;;;;5028022;28;20033;-69
2022/12/15 01:59:04;;;;;;;;;;;-3269.50;92.90;;;;;;5018674;28;20072;-69
2022/12/15 02:01:30;;;;;;;24.83;10.55;;;-3269.50;93.10;;;;;;5036576;28;19905;-69
2022/12/15 02:03:55;;;;;;;27.33;11.80;;;-3269.50;93.20;;;;;;5028209;28;20053;-69
2022/12/15 02:06:24;;;;;;;22.20;11.52;;;-3269.40;93.30;;;;;;5028321;28;20438;-69
2022/12/15 02:08:53;;;;;;;24.48;11.70;;;-3269.40;93.30;;;;;;5025948;28;20090;-69
2022/12/15 02:11:46;;;;;;;22.55;11.75;;;-3269.50;93.40;;;;;;5025187;28;20066;-70
2022/12/15 02:14:23;;;;;;;25.25;11.75;;;-3269.50;93.50;;;;;;5012575;28;20056;-69
2022/12/15 02:17:02;;;;;;;20.83;11.70;;;-3269.50;93.50;;;;;;5024567;28;20076;-69
2022/12/15 02:19:52;;;;;;;19.60;10.82;;;-3269.60;93.50;;;;;;5036305;28;20286;-69
2022/12/15 02:22:56;;;;;;;24.92;11.95;;;-3269.60;93.50;;;;;;5019687;28;20085;-69
2022/12/15 02:25:42;;;;;;;20.60;11.23;;;-3269.70;93.50;;;;;;5026403;28;20043;-69
2022/12/15 02:28:18;;;;;;;25.05;11.90;;;-3269.80;93.40;;;;;;5012860;28;20025;-69
2022/12/15 02:33:50;;;;;;;28.95;12.95;;;-3269.70;93.20;;;;;;5020613;28;20100;-69
2022/12/15 02:36:32;;;;;;;25.75;13.25;;;-3269.70;93.30;;;;;;5030609;28;20132;-69
2022/12/15 02:38:58;;;;;;;25.40;12.90;;;-3269.70;93.30;;;;;;5028403;28;20130;-69
2022/12/15 02:41:32;;;;;;;33.95;12.95;;;-3269.70;93.20;;;;;;5025940;28;20167;-69
2022/12/15 02:43:59;;;;;;;28.27;12.93;;;-3269.70;93.40;;;;;;5025751;28;20300;-68
2022/12/15 02:46:39;;;;;;;21.17;12.20;;;-3269.80;93.50;;;;;;5014021;28;20030;-69
2022/12/15 02:49:21;;;;;;;25.53;11.87;;;-3269.90;93.40;;;;;;5023656;28;20130;-69
2022/12/15 02:52:02;;;;;;;23.98;12.30;;;-3269.80;93.40;;;;;;5009997;28;20101;-69
2022/12/15 02:54:57;;;;;;;26.88;12.23;;;-3269.90;93.30;;;;;;5022918;28;20121;-69
2022/12/15 02:57:36;;;;;;;32.90;11.95;;;-3269.80;93.40;;;;;;5026985;28;20025;-70
2022/12/15 03:00:09;;;;;;;22.88;10.60;;;-3269.80;93.40;;;;;;5019270;28;20075;-69
2022/12/15 03:02:38;;;;;;;24.63;12.85;;;-3269.90;93.40;;;;;;5019056;28;20136;-69
2022/12/15 03:05:04;;;;;;;30.60;13.38;;;-3269.80;93.40;;;;;;5025701;28;20159;-69
2022/12/15 03:07:30;;;;;;;22.23;11.43;;;-3269.80;93.40;;;;;;5014034;28;20052;-69
2022/12/15 03:09:58;;;;;;;26.23;12.88;;;-3269.80;93.30;;;;;;5021830;28;20037;-68
2022/12/15 03:12:24;;;;;;;24.52;12.13;;;-3269.80;93.40;;;;;;5024827;28;20516;-69
2022/12/15 03:14:49;;;;;;;25.27;12.45;;;-3269.80;93.40;;;;;;5025845;28;20030;-69
2022/12/15 03:17:15;;;;;;;25.45;12.88;;;-3269.70;93.40;;;;;;5025496;28;20047;-69
2022/12/15 03:19:41;;;;;;;25.55;12.77;;;-3269.70;93.40;;;;;;5035201;28;20053;-68
2022/12/15 03:22:06;;;;;;;28.52;12.45;;;-3269.80;93.70;;;;;;5025160;28;20450;-69
2022/12/15 03:24:32;;;;;;;20.60;11.75;;;-3269.80;93.60;;;;;;5028313;28;20049;-69
2022/12/15 03:26:57;;;;;;;23.20;12.80;;;-3269.80;93.60;;;;;;5020620;28;20032;-69
2022/12/15 03:29:23;;;;;;;26.60;13.88;;;-3269.80;93.60;;;;;;5015513;28;20120;-69
2022/12/15 03:31:48;;;;;;;26.13;12.88;;;-3269.70;93.70;;;;;;5030457;28;20397;-69
2022/12/15 03:34:14;;;;;;;24.73;12.90;;;-3269.70;93.80;;;;;;5031912;28;20037;-69
2022/12/15 03:36:40;;;;;;;25.25;13.15;;;-3269.70;93.70;;;;;;5029838;28;20090;-69
2022/12/15 03:39:05;;;;;;;23.92;12.65;;;-3269.70;93.80;;;;;;5035404;28;20043;-69
2022/12/15 03:41:31;;;;;;;23.58;12.02;;;-3269.70;93.90;;;;;;5027476;28;20029;-69
2022/12/15 03:43:56;;;;;;;24.42;12.00;;;-3269.70;93.80;;;;;;5023633;28;20041;-69
2022/12/15 03:46:22;;;;;;;25.45;13.35;;;-3269.70;94.10;;;;;;5022147;28;20136;-69
2022/12/15 03:48:47;;;;;;;28.42;12.52;;;-3269.80;94.00;;;;;;5015744;28;20040;-69
2022/12/15 03:51:13;;;;;;;26.42;12.35;;;-3269.70;93.90;;;;;;5029789;28;20114;-69
2022/12/15 03:53:38;;;;;;;25.88;13.00;;;-3269.80;94.10;;;;;;5017357;28;20072;-69
2022/12/15 03:56:04;;;;;;;23.77;11.80;;;-3269.90;94.10;;;;;;5029893;28;20029;-69
2022/12/15 03:58:29;;;;;;;21.02;12.40;;;-3269.80;94.00;;;;;;5027921;28;20036;-69
2022/12/15 04:00:55;;;;;;;24.50;12.38;;;-3269.90;94.00;;;;;;5021221;28;20342;-69
2022/12/15 04:03:20;;;;;;;26.77;12.48;;;-3269.80;93.90;;;;;;5030255;28;20458;-69
2022/12/15 04:05:46;;;;;;;23.10;12.73;;;-3269.80;93.90;;;;;;5030164;28;20326;-69
2022/12/15 04:08:11;;;;;;;25.80;12.65;;;-3269.80;93.90;;;;;;5030918;28;20124;-68
2022/12/15 04:10:37;;;;;;;25.70;13.18;;;-3269.80;93.90;;;;;;5017786;28;20105;-69
2022/12/15 04:13:05;;;;;;;24.02;12.75;;;-3269.80;93.90;;;;;;5029753;28;20021;-68
2022/12/15 04:15:32;;;;;;;27.10;12.68;;;-3269.80;94.00;;;;;;5025777;28;20109;-69
2022/12/15 04:17:59;;;;;;;24.05;12.48;;;-3269.70;93.90;;;;;;5029384;28;20073;-68
2022/12/15 04:20:24;;;;;;;25.95;12.18;;;-3269.70;93.80;;;;;;5029855;28;20075;-68
2022/12/15 04:22:51;;;;;;;20.85;10.80;;;-3269.60;93.90;;;;;;5020455;28;20172;-68
2022/12/15 05:34:12;;;;;;;24.90;11.98;;;-3269.50;94.50;;;;;;5022459;28;20797;-68
2022/12/15 05:36:38;;;;;;;22.65;12.10;;;-3269.50;94.50;;;;;;5027677;28;20057;-68
2022/12/15 05:39:03;;;;;;;22.77;11.73;;;-3269.50;94.60;;;;;;5025537;28;20033;-67
2022/12/15 05:41:29;;;;;;;27.13;12.48;;;-3269.50;94.60;;;;;;5026688;28;20406;-67
2022/12/15 05:43:54;;;;;;;24.65;12.40;;;-3269.50;94.70;;;;;;5021300;28;20045;-68
2022/12/15 05:46:20;;;;;;;25.10;13.18;;;-3269.60;94.90;;;;;;5022076;28;20427;-67
2022/12/15 05:48:46;;;;;;;21.48;12.05;;;-3269.50;94.70;;;;;;5026696;28;20128;-67
2022/12/15 05:51:12;;;;;;;28.33;13.20;;;-3269.60;94.80;;;;;;5027171;28;20374;-68
2022/12/15 05:53:39;;;;;;;21.25;12.02;;;-3269.60;95.00;;;;;;5017217;28;20367;-69
2022/12/15 05:56:08;;;;;;;22.92;12.43;;;-3269.70;95.00;;;;;;5021964;28;20039;-66
2022/12/15 05:58:34;;;;;;;28.73;13.32;;;-3269.70;95.10;;;;;;5025093;28;20489;-67
2022/12/15 06:01:08;;;;;;;26.67;12.50;;;-3269.70;95.00;;;;;;5024069;28;20049;-67
2022/12/15 06:03:34;;;;;;;25.00;12.48;;;-3269.70;95.00;;;;;;5013835;28;20538;-67
2022/12/15 06:06:00;;;;;;;26.45;12.15;;;-3269.70;95.00;;;;;;5022045;28;20025;-67
2022/12/15 06:08:31;;;;;;;29.98;13.65;;;-3269.70;94.90;;;;;;5024475;28;20029;-68
2022/12/15 06:10:59;;;;;;;21.38;12.07;;;-3269.70;94.90;;;;;;5020111;28;20025;-68
2022/12/15 06:13:26;;;;;;;21.63;12.18;;;-3269.80;95.10;;;;;;5019720;28;20029;-67
2022/12/15 06:16:00;;;;;;;26.42;12.90;;;-3269.80;95.10;;;;;;5023771;28;20445;-68
2022/12/15 06:18:28;;;;;;;24.58;13.00;;;-3269.80;95.00;;;;;;5023713;28;20045;-68
2022/12/15 06:21:18;;;;;;;25.23;11.30;;;-3269.80;95.20;;;;;;5026222;28;20104;-67
2022/12/15 06:23:44;;;;;;;24.88;13.13;;;-3269.80;95.10;;;;;;5024028;28;20048;-68
2022/12/15 06:26:11;;;;;;;25.38;13.50;;;-3269.90;95.30;;;;;;5027734;28;20072;-68
2022/12/15 06:28:37;;;;;;;24.80;12.40;;;-3269.90;95.20;;;;;;5025034;28;20029;-68
2022/12/15 06:31:05;;;;;;;25.70;12.93;;;-3269.80;95.20;;;;;;5025381;28;20124;-68
2022/12/15 06:33:31;;;;;;;26.92;13.30;;;-3269.90;95.20;;;;;;5027060;28;20033;-68
2022/12/15 06:36:11;;;;;;;27.25;12.95;;;-3269.90;95.20;;;;;;5027441;28;20406;-68
2022/12/15 06:38:37;;;;;;;;;;;-3269.80;95.10;;;;;;5028231;28;20048;-66
2022/12/15 06:41:06;;;;;;;21.73;10.80;;;-3269.80;95.20;;;;;;5022012;28;20008;-67
2022/12/15 06:43:33;;;;;;;19.08;11.98;;;-3269.80;95.20;;;;;;5020637;28;20026;-67
2022/12/15 06:45:59;;;;;;;24.50;13.90;;;-3269.80;95.20;;;;;;5019311;28;20033;-66
2022/12/15 06:48:25;;;;;;;26.15;12.88;;;-3269.80;95.30;;;;;;5026621;28;20028;-67
2022/12/15 06:50:51;;;;;;;25.98;13.35;;;-3269.90;95.30;;;;;;5024029;28;20036;-67
2022/12/15 06:53:19;;;;;;;31.00;13.10;;;-3269.90;95.30;;;;;;5021399;28;20033;-69
2022/12/15 06:55:45;;;;;;;21.90;11.25;;;-3269.90;95.50;;;;;;5018354;28;20035;-69
2022/12/15 06:58:12;;;;;;;31.38;13.52;;;-3270.00;95.60;;;;;;5024568;28;20322;-68
2022/12/15 07:00:39;;;;;;;25.88;12.77;;;-3270.00;95.40;;;;;;5023200;28;20033;-68
2022/12/15 07:03:18;;;;;;;33.38;15.25;;;-3270.00;95.40;;;;;;5019772;28;20041;-68
2022/12/15 07:05:44;;;;;;;26.88;13.43;;;-3270.00;95.40;;;;;;5022413;28;20134;-68
2022/12/15 07:08:11;;;;;;;24.70;12.70;;;-3270.00;95.20;;;;;;5027653;28;20060;-68
2022/12/15 07:10:39;;;;;;;29.20;13.25;;;-3269.90;95.30;;;;;;5024135;28;20022;-69
2022/12/15 07:13:04;;;;;;;24.77;12.60;;;-3269.90;95.30;;;;;;5014963;28;21106;-68
2022/12/15 07:15:30;;;;;;;30.40;13.90;;;-3270.00;95.50;;;;;;5024749;28;20462;-67
2022/12/15 07:17:56;;;;;;;20.42;12.23;;;-3270.10;95.60;;;;;;5025128;28;20037;-67
2022/12/15 07:20:22;;;;;;;27.40;13.60;;;-3270.10;95.40;;;;;;5022463;28;20025;-66
2022/12/15 07:22:51;;;;;;;24.20;12.75;;;-3270.10;95.50;;;;;;5025792;28;20056;-66
2022/12/15 07:25:17;;;;;;;24.80;13.35;;;-3270.00;95.40;;;;;;5025549;28;20120;-66
2022/12/15 07:27:46;;;;;;;24.25;13.65;;;-3270.10;95.50;;;;;;5025964;28;20033;-67
2022/12/15 07:30:13;;;;;;;27.20;13.15;;;-3270.00;95.50;;;;;;5026683;28;20033;-67
2022/12/15 07:32:39;;;;;;;23.63;13.63;;;-3270.10;95.50;;;;;;5030316;28;20026;-67
2022/12/15 07:35:07;;;;;;;25.40;13.82;;;-3270.20;95.50;;;;;;5024718;28;20059;-67
2022/12/15 07:37:33;;;;;;;26.50;12.93;;;-3270.20;95.50;;;;;;5032057;28;20485;-67
2022/12/15 07:39:59;;;;;;;28.80;13.63;;;-3270.20;95.50;;;;;;5028128;28;20044;-67
2022/12/15 07:42:24;;;;;;;23.70;12.45;;;-3270.20;95.50;;;;;;5028472;28;20382;-67
2022/12/15 07:44:50;;;;;;;30.73;14.38;;;-3270.20;95.40;;;;;;5025178;28;20104;-67
2022/12/15 07:47:15;;;;;;;28.65;14.30;;;-3270.20;95.30;;;;;;5029438;28;20108;-67
2022/12/15 07:49:41;;;;;;;26.05;13.68;;;-3270.20;95.50;;;;;;5028636;28;20525;-67
2022/12/15 07:52:06;;;;;;;26.58;13.10;;;-3270.20;95.30;;;;;;5030462;28;20022;-67
2022/12/15 07:54:32;;;;;;;29.30;14.27;;;-3270.20;95.40;;;;;;5025981;28;20516;-67
2022/12/15 07:56:58;;;;;;;25.48;13.57;;;-3270.20;95.40;;;;;;5018622;28;20029;-67
2022/12/15 07:59:24;;;;;;;27.60;13.70;;;-3270.30;95.60;;;;;;5021635;28;20037;-67
2022/12/15 08:01:51;;;;;;;26.42;14.10;;;-3270.30;95.50;;;;;;5028513;28;20095;-67
2022/12/15 08:04:16;;;;;;;27.85;13.00;;;-3270.40;95.50;;;;;;5029936;28;20104;-67
2022/12/15 08:06:42;;;;;;;28.55;13.57;;;-3270.30;95.40;;;;;;5026827;28;20096;-67
2022/12/15 08:09:08;;;;;;;27.92;14.05;;;-3270.40;95.50;;;;;;5012870;28;20037;-68
2022/12/15 08:11:34;;;;;;;25.80;14.05;;;-3270.40;95.50;;;;;;5020634;28;20308;-70
2022/12/15 08:13:59;;;;;;;29.50;14.65;;;-3270.50;95.60;;;;;;5029417;28;20044;-68
2022/12/15 08:16:25;;;;;;;26.88;14.45;;;-3270.60;95.80;;;;;;5026176;28;20125;-69
2022/12/15 08:18:51;;;;;;;27.92;13.18;;;-3270.60;95.60;;;;;;5027947;28;20089;-68
2022/12/15 08:21:17;;;;;;;28.17;14.35;;;-3270.60;95.60;;;;;;5027856;28;20773;-68
2022/12/15 08:23:43;;;;;;;31.50;14.77;;;-3270.60;95.60;;;;;;5030222;28;20059;-68
2022/12/15 08:26:13;;;;;;;26.02;13.68;;;-3270.70;95.60;;;;;;5027721;28;20041;-68
2022/12/15 08:28:39;;;;;;;;;;;-3270.80;95.60;;;;;;5017059;28;20087;-68
2022/12/15 08:31:16;;;;;;;25.08;13.25;;;-3270.80;95.50;;;;;;5024694;28;20305;-68
2022/12/15 08:33:42;;;;;;;27.10;14.23;;;-3270.80;95.50;;;;;;5022903;28;20026;-68
2022/12/15 08:36:10;;;;;;;26.75;13.90;;;-3270.90;95.50;;;;;;5029794;28;20359;-68
2022/12/15 08:38:37;;;;;;;28.77;14.93;;;-3270.90;95.50;;;;;;5028771;28;20434;-68
2022/12/15 08:41:18;;;;;;;28.25;14.25;;;-3271.00;95.60;;;;;;5022092;28;20037;-66
2022/12/15 08:43:46;;;;;;;27.05;15.27;;;-3271.00;95.70;;;;;;5019346;28;20033;-66
2022/12/15 08:46:12;;;;;;;27.42;15.02;;;-3271.10;95.60;;;;;;5019984;28;20125;-66
2022/12/15 08:48:37;;;;;;;28.90;15.25;;;-3271.20;95.60;;;;;;5025533;28;20057;-67
2022/12/15 08:51:03;;;;;;;31.42;14.73;;;-3271.30;95.60;;;;;;5026014;28;20437;-66
2022/12/15 08:53:29;;;;;;;26.95;14.93;;;-3271.50;95.70;;;;;;5024578;28;20099;-66
2022/12/15 08:55:54;;;;;;;34.08;16.15;;;-3271.60;95.60;;;;;;5022232;28;20455;-66
2022/12/15 08:58:20;;;;;;;33.72;16.40;;;-3271.70;95.60;;;;;;5023955;28;20053;-66
2022/12/15 09:00:45;;;;;;;32.45;15.52;;;-3271.90;95.50;;;;;;5016333;28;20034;-67
2022/12/15 09:03:10;;;;;;;26.98;15.02;;;-3272.00;95.40;;;;;;5020707;28;20041;-66
2022/12/15 09:05:37;;;;;;;26.33;14.77;;;-3272.10;95.30;;;;;;5027621;28;20099;-66
2022/12/15 09:08:04;;;;;;;29.75;14.25;;;-3272.10;95.30;;;;;;5027364;28;20057;-67
2022/12/15 09:10:30;;;;;;;28.65;15.38;;;-3272.20;95.20;;;;;;5025590;28;20433;-67
2022/12/15 09:12:55;;;;;;;28.33;16.15;;;-3272.30;95.10;;;;;;5022684;28;20036;-66
2022/12/15 09:15:21;;;;;;;29.85;15.15;;;-3272.30;95.00;;;;;;5027892;28;20334;-66
2022/12/15 09:17:47;;;;;;;27.50;14.32;;;-3272.40;94.90;;;;;;5024337;28;20014;-66
2022/12/15 09:20:13;;;;;;;32.05;16.13;;;-3272.50;94.80;;;;;;5021713;28;20108;-67
2022/12/15 09:22:41;;;;;;;25.73;14.02;;;-3272.70;94.80;;;;;;5028263;28;20425;-67
2022/12/15 09:25:07;;;;;;;28.45;14.55;;;-3272.90;94.70;;;;;;5026733;28;20041;-67
2022/12/15 09:27:33;;;;;;;27.38;16.02;;;-3273.00;94.30;;;;;;5028018;28;20045;-67
2022/12/15 09:29:59;;;;;;;24.98;15.07;;;-3273.10;94.20;;;;;;5024952;28;20026;-67
2022/12/15 09:32:25;;;;;;;30.98;15.25;;;-3273.10;94.00;;;;;;5025644;28;20030;-68
2022/12/15 09:34:51;;;;;;;23.42;14.63;;;-3273.20;94.00;;;;;;5026871;28;20032;-67
2022/12/15 09:37:17;;;;;;;25.30;13.90;;;-3273.20;93.70;;;;;;5019178;28;20041;-67
2022/12/15 09:39:42;;;;;;;26.48;13.68;;;-3273.20;93.70;;;;;;5026604;28;20041;-67
2022/12/15 09:42:37;;;;;;;21.10;12.75;;;-3273.30;93.80;;;;;;5024564;28;20088;-67
2022/12/15 09:45:12;;;;;;;22.27;13.02;;;-3273.40;93.80;;;;;;5019106;28;20050;-67
2022/12/15 09:47:54;;;;;;;24.52;12.32;;;-3273.40;93.60;;;;;;5019611;28;20099;-68
2022/12/15 09:50:27;;;;;;;21.13;11.98;;;-3273.50;93.60;;;;;;5029334;28;20089;-68
2022/12/15 09:52:55;;;;;;;22.20;12.35;;;-3273.60;93.70;;;;;;5026896;28;20346;-67
2022/12/15 09:55:31;;;;;;;20.83;12.15;;;-3273.70;93.70;;;;;;5018990;28;20044;-68
2022/12/15 09:58:03;;;;;;;22.38;11.80;;;-3273.90;93.70;;;;;;5023568;28;20088;-68
2022/12/15 10:00:53;;;;;;;21.13;11.45;;;-3274.00;93.60;;;;;;5022236;28;20024;-68
2022/12/15 10:03:57;;;;;;;21.58;11.27;;;-3274.10;93.40;;;;;;5024859;28;20220;-68
2022/12/15 10:06:34;;;;;;;23.75;11.20;;;-3274.50;93.30;;;;;;5020954;28;20086;-68
2022/12/15 10:09:11;;;;;;;20.95;11.48;;;-3274.70;93.40;;;;;;5024905;28;20088;-69
2022/12/15 10:12:08;;;;;;;19.80;11.07;;;-3274.70;93.00;;;;;;5011299;28;20078;-67
2022/12/15 10:14:51;;;;;;;17.98;11.40;;;-3274.70;92.60;;;;;;5026135;28;20042;-68
2022/12/15 10:17:41;;;;;;;19.50;11.00;;;-3274.70;92.30;;;;;;5021676;28;20050;-67
2022/12/15 10:20:21;;;;;;;18.55;10.43;;;-3274.70;92.40;;;;;;5020603;28;20361;-67
2022/12/15 10:22:47;;;;;;;18.25;9.75;;;-3274.80;92.50;;;;;;5026747;28;20046;-68
2022/12/15 10:25:16;;;;;;;16.38;9.85;;;-3274.70;92.50;;;;;;5026140;28;20359;-67
2022/12/15 10:28:06;;;;;;;18.67;10.65;;;-3274.80;92.20;;;;;;5024426;28;20025;-67
2022/12/15 10:30:32;;;;;;;20.08;11.45;;;-3274.70;92.40;;;;;;5016800;28;20516;-67
2022/12/15 10:33:02;;;;;;;15.15;9.63;;;-3274.80;92.40;;;;;;5018107;28;20038;-67
2022/12/15 10:35:34;;;;;;;19.87;10.60;;;-3275.00;92.70;;;;;;5035366;28;20327;-68
2022/12/15 10:38:02;;;;;;;17.65;10.05;;;-3275.00;92.70;;;;;;5026333;28;20362;-67
2022/12/15 10:40:49;;;;;;;17.65;9.73;;;-3275.00;92.60;;;;;;5030393;28;20407;-68
2022/12/15 10:43:33;;;;;;;15.70;9.32;;;-3275.10;92.60;;;;;;5024578;28;20060;-67
2022/12/15 10:46:26;;;;;;;17.83;9.63;;;-3275.20;92.60;;;;;;5017034;28;20028;-68
2022/12/15 10:48:58;;;;;;;17.98;9.32;;;-3275.30;92.50;;;;;;5022578;28;20137;-68
2022/12/15 10:51:31;;;;;;;17.65;10.10;;;-3275.40;92.70;;;;;;5015292;28;20035;-68
2022/12/15 10:53:59;;;;;;;18.52;10.88;;;-3275.40;92.50;;;;;;5023211;28;20041;-67
2022/12/15 10:56:27;;;;;;;16.08;9.48;;;-3275.70;92.70;;;;;;5026631;28;20022;-67
2022/12/15 10:58:55;;;;;;;20.45;10.40;;;-3275.70;92.10;;;;;;5021833;28;20033;-67
2022/12/15 11:01:27;;;;;;;17.42;9.40;;;-3275.80;92.20;;;;;;5021590;28;20061;-68
2022/12/15 11:03:53;;;;;;;14.77;8.88;;;-3275.70;91.80;;;;;;5021900;28;20476;-66
2022/12/15 11:06:24;;;;;;;15.88;9.70;;;-3275.90;92.10;;;;;;5023200;28;20054;-67
2022/12/15 11:08:52;;;;;;;15.43;9.27;;;-3275.90;91.90;;;;;;5026460;28;20437;-68
2022/12/15 11:14:24;;;;;;;14.27;8.88;;;-3276.10;91.80;;;;;;5013935;28;20852;-68
2022/12/15 11:16:55;;;;;;;15.57;9.50;;;-3276.10;91.40;;;;;;5018517;28;20029;-67
2022/12/15 11:19:20;;;;;;;;;;;-3276.10;91.30;;;;;;5019750;28;20094;-67
2022/12/15 11:21:52;;;;;;;15.23;8.00;;;-3276.10;91.40;;;;;;5015161;28;20324;-67
2022/12/15 11:24:44;;;;;;;15.68;9.13;;;-3276.10;91.60;;;;;;5022219;28;20045;-68
2022/12/15 11:27:20;;;;;;;;;;;-3276.10;91.30;;;;;;5017288;28;20040;-68
2022/12/15 11:30:12;;;;;;;14.10;8.25;;;-3276.20;91.50;;;;;;5021911;28;19917;-68
2022/12/15 11:32:43;;;;;;;14.27;8.70;;;-3276.20;91.30;;;;;;5025801;28;20469;-68
2022/12/15 11:35:20;;;;;;;14.70;8.18;;;-3276.30;91.40;;;;;;5021142;28;20086;-68
2022/12/15 11:37:50;;;;;;;13.82;8.45;;;-3276.40;91.40;;;;;;5017805;28;20037;-67
2022/12/15 11:40:38;;;;;;;15.20;8.82;;;-3276.50;91.30;;;;;;5018199;28;20030;-68
2022/12/15 11:43:10;;;;;;;15.65;8.77;;;-3276.60;91.20;;;;;;5023046;28;20365;-68
2022/12/15 11:45:49;;;;;;;15.35;8.77;;;-3276.60;90.90;;;;;;5014183;28;20112;-68
2022/12/15 11:48:25;;;;;;;15.63;8.93;;;-3276.60;90.80;;;;;;5023758;28;20025;-68
2022/12/15 11:50:52;;;;;;;14.20;8.35;;;-3276.50;90.60;;;;;;5023534;28;20026;-68
2022/12/15 11:53:39;;;;;;;16.92;8.63;;;-3276.50;90.80;;;;;;5021837;28;20137;-68
2022/12/15 11:56:20;;;;;;;14.63;8.55;;;-3276.60;90.90;;;;;;5025821;28;20419;-68
2022/12/15 11:59:12;;;;;;;14.15;8.15;;;-3276.60;91.00;;;;;;5029765;28;20127;-68
2022/12/15 12:01:53;;;;;;;14.23;8.13;;;-3276.70;90.90;;;;;;5021181;28;20468;-68
2022/12/15 12:04:27;;;;;;;15.80;8.48;;;0.00;90.90;;;;;;5024158;28;20064;-68
2022/12/15 12:07:06;;;;;;;13.68;8.20;;;0.10;90.70;;;;;;5025209;28;20037;-68
2022/12/15 12:09:35;;;;;;;13.70;7.85;;;0.10;90.70;;;;;;5014812;28;20077;-68
2022/12/15 12:12:15;;;;;;;13.25;7.47;;;0.10;90.50;;;;;;5012302;28;20014;-68
2022/12/15 12:15:17;;;;;;;17.25;8.50;;;0.10;90.60;;;;;;5017865;28;20087;-68
2022/12/15 12:17:48;;;;;;;13.40;7.30;;;0.10;90.40;;;;;;5013593;28;20430;-68
2022/12/15 12:20:18;;;;;;;;;;;0.10;90.20;;;;;;5030153;28;20029;-67
2022/12/15 12:23:08;;;;;;;16.20;6.97;;;0.10;90.40;;;;;;5020967;28;19913;-68
2022/12/15 12:25:42;;;;;;;15.90;7.77;;;0.10;90.50;;;;;;5017896;28;20084;-68
2022/12/15 12:28:27;;;;;;;13.25;7.10;;;0.20;90.30;;;;;;5022100;28;20095;-68
2022/12/15 12:30:55;;;;;;;11.80;7.40;;;0.30;90.20;;;;;;5015514;28;20227;-67
2022/12/15 12:33:32;;;;;;;15.68;7.55;;;0.40;90.20;;;;;;5023867;28;20083;-68
2022/12/15 12:36:10;;;;;;;13.75;6.55;;;0.40;90.10;;;;;;5016395;28;20033;-68
2022/12/15 12:38:44;;;;;;;14.38;7.10;;;0.50;89.60;;;;;;5021365;28;20029;-67
2022/12/15 12:41:15;;;;;;;13.25;7.00;;;0.50;89.70;;;;;;5020294;28;20030;-67
2022/12/15 12:43:45;;;;;;;13.60;7.35;;;0.50;89.50;;;;;;5019741;28;20060;-68
2022/12/15 12:46:33;;;;;;;13.83;6.53;;;0.50;89.20;;;;;;5021639;28;20148;-67
2022/12/15 12:49:18;;;;;;;13.70;6.45;;;0.60;89.00;;;;;;5025180;28;20082;-67
2022/12/15 12:51:51;;;;;;;13.90;7.13;;;0.70;89.10;;;;;;5025953;28;20141;-67
2022/12/15 12:54:35;;;;;;;10.65;6.53;;;0.90;88.90;;;;;;5019500;28;20032;-67
2022/12/15 12:57:10;;;;;;;15.25;7.10;;;1.00;88.10;;;;;;5015039;28;20026;-67
2022/12/15 12:59:39;;;;;;;13.35;7.05;;;1.00;87.20;;;;;;5023031;28;20120;-67
2022/12/15 13:02:20;;;;;;;13.75;7.20;;;1.10;87.50;;;;;;5019963;28;20180;-67
2022/12/15 13:04:51;;;;;;;14.77;7.72;;;1.10;87.40;;;;;;5019771;28;20134;-68
2022/12/15 13:07:33;;;;;;;13.52;7.00;;;1.10;87.60;;;;;;5021782;28;20040;-67
2022/12/15 13:10:17;;;;;;;12.13;7.15;;;1.00;87.20;;;;;;5035036;28;20411;-67
2022/12/15 13:12:59;;;;;;;14.65;7.28;;;1.00;87.60;;;;;;5018966;28;20044;-68
2022/12/15 13:15:27;;;;;;;16.25;6.97;;;1.00;87.80;;;;;;5020188;28;20052;-68
2022/12/15 13:18:17;;;;;;;14.50;7.32;;;0.90;87.30;;;;;;5023154;28;20108;-68
2022/12/15 13:20:45;;;;;;;12.77;7.30;;;0.90;87.10;;;;;;5034004;28;20049;-68
2022/12/15 13:23:22;;;;;;;13.82;7.13;;;0.90;87.10;;;;;;5014833;28;20169;-68
2022/12/15 13:25:57;;;;;;;14.48;7.07;;;0.80;87.10;;;;;;5019430;28;20051;-67
2022/12/15 13:28:37;;;;;;;13.93;6.25;;;0.70;87.50;;;;;;5022743;28;20172;-68
2022/12/15 13:31:21;;;;;;;14.25;7.50;;;0.60;88.00;;;;;;5024340;28;20033;-67
2022/12/15 13:33:49;;;;;;;14.38;7.10;;;0.60;88.00;;;;;;5030258;28;20526;-66
2022/12/15 13:36:40;;;;;;;18.50;7.93;;;0.60;87.50;;;;;;5027077;28;20025;-67
2022/12/15 13:39:11;;;;;;;13.05;7.25;;;0.60;87.60;;;;;;5042383;28;20373;-68
2022/12/15 13:41:56;;;;;;;14.43;7.20;;;0.60;87.60;;;;;;5015968;28;20076;-67
2022/12/15 13:44:34;;;;;;;18.35;7.53;;;0.50;87.70;;;;;;5020461;28;20041;-67
2022/12/15 13:47:22;;;;;;;13.80;7.25;;;0.50;88.10;;;;;;5025723;28;20165;-66
2022/12/15 13:49:55;;;;;;;14.93;7.22;;;0.50;88.00;;;;;;5023129;28;20587;-67
2022/12/15 13:52:31;;;;;;;16.77;7.32;;;0.50;88.20;;;;;;5022335;28;20323;-66
2022/12/15 13:55:02;;;;;;;11.75;6.80;;;0.50;88.10;;;;;;5020740;28;20327;-67
2022/12/15 13:57:32;;;;;;;13.43;6.90;;;0.40;87.90;;;;;;5026393;28;20025;-68
2022/12/15 14:00:20;;;;;;;13.00;6.60;;;0.40;88.00;;;;;;5010353;28;20029;-67
2022/12/15 14:02:45;;;;;;;11.57;6.40;;;0.40;87.70;;;;;;5021889;28;20037;-67
2022/12/15 14:05:17;;;;;;;16.27;7.70;;;0.40;87.80;;;;;;5022360;28;20036;-67
2022/12/15 14:07:55;;;;;;;16.17;7.45;;;0.40;87.80;;;;;;5022358;28;20159;-67
2022/12/15 14:10:35;;;;;;;14.60;7.15;;;0.30;87.90;;;;;;5020045;28;20121;-67
2022/12/15 14:13:24;;;;;;;15.73;6.97;;;0.30;87.90;;;;;;5031149;28;20338;-67
2022/12/15 14:16:13;;;;;;;13.75;6.50;;;0.30;87.90;;;;;;5016878;28;20033;-67
2022/12/15 14:18:39;;;;;;;20.83;7.80;;;0.30;87.50;;;;;;5027590;28;20449;-67
2022/12/15 14:21:18;;;;;;;16.05;7.28;;;0.20;87.70;;;;;;5027036;28;20058;-68
2022/12/15 14:23:44;;;;;;;12.05;6.70;;;0.20;87.70;;;;;;5023705;28;20061;-68
2022/12/15 14:26:12;;;;;;;13.93;7.40;;;0.20;87.50;;;;;;5018594;28;20042;-68
2022/12/15 14:28:41;;;;;;;13.73;7.20;;;0.20;87.50;;;;;;5032831;28;20098;-68
2022/12/15 14:31:19;;;;;;;12.75;7.13;;;0.20;87.50;;;;;;5021947;28;20093;-67
2022/12/15 14:33:49;;;;;;;12.55;7.22;;;0.10;87.70;;;;;;5027055;28;20116;-68
2022/12/15 14:36:16;;;;;;;10.70;6.28;;;0.10;87.70;;;;;;5014945;28;20029;-67
2022/12/15 14:38:45;;;;;;;16.45;8.00;;;0.10;87.70;;;;;;5017373;28;20064;-66
2022/12/15 14:41:23;;;;;;;14.00;7.85;;;0.10;87.60;;;;;;5025517;28;20033;-68
2022/12/15 14:43:50;;;;;;;15.70;7.93;;;0.00;87.90;;;;;;5023629;28;20159;-67
2022/12/15 14:46:22;;;;;;;17.38;8.30;;;0.00;88.40;;;;;;5019849;28;20355;-67
2022/12/15 14:48:53;;;;;;;15.25;7.70;;;-3276.70;88.60;;;;;;5030874;28;20184;-67
2022/12/15 14:51:20;;;;;;;15.40;8.13;;;-3276.60;88.90;;;;;;5025250;28;20044;-66
2022/12/15 14:53:50;;;;;;;13.95;7.95;;;-3276.50;89.30;;;;;;5028234;28;20033;-68
2022/12/15 14:56:19;;;;;;;13.57;8.10;;;-3276.40;89.60;;;;;;5021368;28;20045;-68
2022/12/15 14:58:53;;;;;;;13.48;8.10;;;-3276.50;90.00;;;;;;5023798;28;20104;-68